sensor_id;sensor_type;location;lat;lon;timestamp;temperature;humidity
12303;DHT22;6214;48.012;7.862;2022-10-16T00:01:17;19.30;99.90
12303;DHT22;6214;48.012;7.862;2022-10-16T00:03:45;19.40;99.90
12303;DHT22;6214;48.012;7.862;2022-10-16T00:06:12;19.30;99.90
12303;DHT22;6214;48.012;7.862;2022-10-16T00:08:40;19.30;99.90
12303;DHT22;6214;48.012;7.862;2022-10-16T00:11:13;19.20;99.90
12303;DHT22;6214;48.012;7.862;2022-10-16T00:13:41;19.10;99.90
12303;DHT22;6214;48.012;7.862;2022-10-16T00:16:10;19.10;99.90
12303;DHT22;6214;48.012;7.862;2022-10-16T00:18:37;19.20;99.90
12303;DHT22;6214;48.012;7.862;2022-10-16T00:21:07;19.10;99.90
12303;DHT22;6214;48.012;7.862;2022-10-16T00:23:35;18.80;99.90
12303;DHT22;6214;48.012;7.862;2022-10-16T00:26:04;18.80;99.90
12303;DHT22;6214;48.012;7.862;2022-10-16T00:28:31;18.80;99.90
12303;DHT22;6214;48.012;7.862;2022-10-16T00:30:59;18.80;99.90
12303;DHT22;6214;48.012;7.862;2022-10-16T00:33:28;18.80;99.90
12303;DHT22;6214;48.012;7.862;2022-10-16T00:35:58;18.80;99.90
12303;DHT22;6214;48.012;7.862;2022-10-16T00:38:25;18.80;99.90
12303;DHT22;6214;48.012;7.862;2022-10-16T00:40:52;18.80;99.90
12303;DHT22;6214;48.012;7.862;2022-10-16T00:43:48;18.60;99.90
12303;DHT22;6214;48.012;7.862;2022-10-16T00:46:42;18.60;99.90
12303;DHT22;6214;48.012;7.862;2022-10-16T00:49:17;18.60;99.90
12303;DHT22;6214;48.012;7.862;2022-10-16T00:51:47;18.70;99.90
12303;DHT22;6214;48.012;7.862;2022-10-16T00:54:21;18.70;99.90
12303;DHT22;6214;48.012;7.862;2022-10-16T00:56:50;18.70;99.90
12303;DHT22;6214;48.012;7.862;2022-10-16T00:59:29;18.70;99.90
12303;DHT22;6214;48.012;7.862;2022-10-16T01:01:57;18.70;99.90
12303;DHT22;6214;48.012;7.862;2022-10-16T01:04:25;18.70;99.90
12303;DHT22;6214;48.012;7.862;2022-10-16T01:07:16;18.70;99.90
12303;DHT22;6214;48.012;7.862;2022-10-16T01:12:32;18.80;99.90
12303;DHT22;6214;48.012;7.862;2022-10-16T01:18:08;18.70;99.90
12303;DHT22;6214;48.012;7.862;2022-10-16T01:20:47;18.70;99.90
12303;DHT22;6214;48.012;7.862;2022-10-16T01:23:43;18.70;99.90
12303;DHT22;6214;48.012;7.862;2022-10-16T01:28:56;18.50;99.90
12303;DHT22;6214;48.012;7.862;2022-10-16T01:31:27;18.30;99.90
12303;DHT22;6214;48.012;7.862;2022-10-16T01:34:09;18.40;99.90
12303;DHT22;6214;48.012;7.862;2022-10-16T01:36:43;18.40;99.90
12303;DHT22;6214;48.012;7.862;2022-10-16T01:39:13;18.40;99.90
12303;DHT22;6214;48.012;7.862;2022-10-16T01:41:48;18.30;99.90
12303;DHT22;6214;48.012;7.862;2022-10-16T01:44:30;18.00;99.90
12303;DHT22;6214;48.012;7.862;2022-10-16T01:46:59;17.90;99.90
12303;DHT22;6214;48.012;7.862;2022-10-16T01:49:31;17.80;99.90
12303;DHT22;6214;48.012;7.862;2022-10-16T01:52:04;17.90;99.90
12303;DHT22;6214;48.012;7.862;2022-10-16T01:54:34;18.00;99.90
12303;DHT22;6214;48.012;7.862;2022-10-16T01:57:04;18.10;99.90
12303;DHT22;6214;48.012;7.862;2022-10-16T01:59:35;18.00;99.90
12303;DHT22;6214;48.012;7.862;2022-10-16T02:02:06;18.00;99.90
12303;DHT22;6214;48.012;7.862;2022-10-16T02:04:39;18.10;99.90
12303;DHT22;6214;48.012;7.862;2022-10-16T02:07:07;18.10;99.90
12303;DHT22;6214;48.012;7.862;2022-10-16T02:09:35;18.00;99.90
12303;DHT22;6214;48.012;7.862;2022-10-16T02:12:22;18.00;99.90
12303;DHT22;6214;48.012;7.862;2022-10-16T02:14:51;18.10;99.90
12303;DHT22;6214;48.012;7.862;2022-10-16T02:17:19;18.10;99.90
12303;DHT22;6214;48.012;7.862;2022-10-16T02:19:47;18.10;99.90
12303;DHT22;6214;48.012;7.862;2022-10-16T02:22:19;18.00;99.90
12303;DHT22;6214;48.012;7.862;2022-10-16T02:24:57;18.00;99.90
12303;DHT22;6214;48.012;7.862;2022-10-16T02:29:59;17.80;99.90
12303;DHT22;6214;48.012;7.862;2022-10-16T02:32:30;17.70;99.90
12303;DHT22;6214;48.012;7.862;2022-10-16T02:34:58;17.70;99.90
12303;DHT22;6214;48.012;7.862;2022-10-16T02:37:27;17.70;99.90
12303;DHT22;6214;48.012;7.862;2022-10-16T02:39:56;17.70;99.90
12303;DHT22;6214;48.012;7.862;2022-10-16T02:42:34;17.50;99.90
12303;DHT22;6214;48.012;7.862;2022-10-16T02:45:03;17.60;99.90
12303;DHT22;6214;48.012;7.862;2022-10-16T02:47:30;17.70;99.90
12303;DHT22;6214;48.012;7.862;2022-10-16T02:49:57;17.70;99.90
12303;DHT22;6214;48.012;7.862;2022-10-16T02:52:24;17.70;99.90
12303;DHT22;6214;48.012;7.862;2022-10-16T02:54:51;17.60;99.90
12303;DHT22;6214;48.012;7.862;2022-10-16T02:57:19;17.60;99.90
12303;DHT22;6214;48.012;7.862;2022-10-16T02:59:46;17.50;99.90
12303;DHT22;6214;48.012;7.862;2022-10-16T03:02:13;17.50;99.90
12303;DHT22;6214;48.012;7.862;2022-10-16T03:04:39;17.50;99.90
12303;DHT22;6214;48.012;7.862;2022-10-16T03:07:06;17.60;99.90
12303;DHT22;6214;48.012;7.862;2022-10-16T03:09:34;17.60;99.90
12303;DHT22;6214;48.012;7.862;2022-10-16T03:12:01;17.70;99.90
12303;DHT22;6214;48.012;7.862;2022-10-16T03:14:28;17.70;99.90
12303;DHT22;6214;48.012;7.862;2022-10-16T03:16:55;17.70;99.90
12303;DHT22;6214;48.012;7.862;2022-10-16T03:19:22;17.60;99.90
12303;DHT22;6214;48.012;7.862;2022-10-16T03:21:49;17.70;99.90
12303;DHT22;6214;48.012;7.862;2022-10-16T03:24:16;17.80;99.90
12303;DHT22;6214;48.012;7.862;2022-10-16T03:26:43;17.90;99.90
12303;DHT22;6214;48.012;7.862;2022-10-16T03:29:10;17.90;99.90
12303;DHT22;6214;48.012;7.862;2022-10-16T03:31:37;17.90;99.90
12303;DHT22;6214;48.012;7.862;2022-10-16T03:34:04;18.00;99.90
12303;DHT22;6214;48.012;7.862;2022-10-16T03:36:31;18.00;99.90
12303;DHT22;6214;48.012;7.862;2022-10-16T03:38:58;18.10;99.90
12303;DHT22;6214;48.012;7.862;2022-10-16T03:41:25;17.50;99.90
12303;DHT22;6214;48.012;7.862;2022-10-16T03:43:52;18.20;99.90
12303;DHT22;6214;48.012;7.862;2022-10-16T03:46:19;18.20;99.90
12303;DHT22;6214;48.012;7.862;2022-10-16T03:48:46;18.30;99.90
12303;DHT22;6214;48.012;7.862;2022-10-16T03:51:13;18.30;99.90
12303;DHT22;6214;48.012;7.862;2022-10-16T03:53:39;18.50;99.90
12303;DHT22;6214;48.012;7.862;2022-10-16T03:56:06;18.60;99.90
12303;DHT22;6214;48.012;7.862;2022-10-16T03:58:33;18.60;99.90
12303;DHT22;6214;48.012;7.862;2022-10-16T04:01:00;18.60;99.90
12303;DHT22;6214;48.012;7.862;2022-10-16T04:03:27;18.70;99.90
12303;DHT22;6214;48.012;7.862;2022-10-16T04:05:54;18.70;99.90
12303;DHT22;6214;48.012;7.862;2022-10-16T04:08:22;18.70;99.90
12303;DHT22;6214;48.012;7.862;2022-10-16T04:10:49;18.70;99.90
12303;DHT22;6214;48.012;7.862;2022-10-16T04:13:16;18.70;99.90
12303;DHT22;6214;48.012;7.862;2022-10-16T04:15:45;18.60;99.90
12303;DHT22;6214;48.012;7.862;2022-10-16T04:18:12;18.60;99.90
12303;DHT22;6214;48.012;7.862;2022-10-16T04:20:39;18.60;99.90
12303;DHT22;6214;48.012;7.862;2022-10-16T04:23:06;18.50;99.90
12303;DHT22;6214;48.012;7.862;2022-10-16T04:25:33;18.30;99.90
12303;DHT22;6214;48.012;7.862;2022-10-16T04:28:00;18.40;99.90
12303;DHT22;6214;48.012;7.862;2022-10-16T04:30:27;18.40;99.90
12303;DHT22;6214;48.012;7.862;2022-10-16T04:32:54;18.30;99.90
12303;DHT22;6214;48.012;7.862;2022-10-16T04:35:21;18.40;99.90
12303;DHT22;6214;48.012;7.862;2022-10-16T04:37:49;18.40;99.90
12303;DHT22;6214;48.012;7.862;2022-10-16T04:40:17;18.40;99.90
12303;DHT22;6214;48.012;7.862;2022-10-16T04:42:44;18.30;99.90
12303;DHT22;6214;48.012;7.862;2022-10-16T04:45:11;18.30;99.90
12303;DHT22;6214;48.012;7.862;2022-10-16T04:47:42;18.30;99.90
12303;DHT22;6214;48.012;7.862;2022-10-16T04:50:09;18.40;99.90
12303;DHT22;6214;48.012;7.862;2022-10-16T04:52:37;18.40;99.90
12303;DHT22;6214;48.012;7.862;2022-10-16T04:55:04;18.40;99.90
12303;DHT22;6214;48.012;7.862;2022-10-16T04:57:32;18.50;99.90
12303;DHT22;6214;48.012;7.862;2022-10-16T05:00:00;18.60;99.90
12303;DHT22;6214;48.012;7.862;2022-10-16T05:02:27;18.70;99.90
12303;DHT22;6214;48.012;7.862;2022-10-16T05:04:54;18.70;99.90
12303;DHT22;6214;48.012;7.862;2022-10-16T05:07:21;18.80;99.90
12303;DHT22;6214;48.012;7.862;2022-10-16T05:09:48;18.90;99.90
12303;DHT22;6214;48.012;7.862;2022-10-16T05:12:15;18.80;99.90
12303;DHT22;6214;48.012;7.862;2022-10-16T05:14:42;18.90;99.90
12303;DHT22;6214;48.012;7.862;2022-10-16T05:17:09;18.90;99.90
12303;DHT22;6214;48.012;7.862;2022-10-16T05:19:36;18.90;99.90
12303;DHT22;6214;48.012;7.862;2022-10-16T05:22:03;18.80;99.90
12303;DHT22;6214;48.012;7.862;2022-10-16T05:24:30;18.80;99.90
12303;DHT22;6214;48.012;7.862;2022-10-16T05:26:57;18.70;99.90
12303;DHT22;6214;48.012;7.862;2022-10-16T05:29:24;18.70;99.90
12303;DHT22;6214;48.012;7.862;2022-10-16T05:31:52;18.70;99.90
12303;DHT22;6214;48.012;7.862;2022-10-16T05:34:20;18.70;99.90
12303;DHT22;6214;48.012;7.862;2022-10-16T05:36:47;18.60;99.90
12303;DHT22;6214;48.012;7.862;2022-10-16T05:39:15;18.60;99.90
12303;DHT22;6214;48.012;7.862;2022-10-16T05:41:44;18.50;99.90
12303;DHT22;6214;48.012;7.862;2022-10-16T05:44:11;18.50;99.90
12303;DHT22;6214;48.012;7.862;2022-10-16T05:46:38;18.50;99.90
12303;DHT22;6214;48.012;7.862;2022-10-16T05:49:05;18.50;99.90
12303;DHT22;6214;48.012;7.862;2022-10-16T05:51:32;18.40;99.90
12303;DHT22;6214;48.012;7.862;2022-10-16T05:53:59;18.40;99.90
12303;DHT22;6214;48.012;7.862;2022-10-16T05:56:26;18.50;99.90
12303;DHT22;6214;48.012;7.862;2022-10-16T05:58:53;18.50;99.90
12303;DHT22;6214;48.012;7.862;2022-10-16T06:01:20;18.50;99.90
12303;DHT22;6214;48.012;7.862;2022-10-16T06:03:52;18.50;99.90
12303;DHT22;6214;48.012;7.862;2022-10-16T06:06:21;18.50;99.90
12303;DHT22;6214;48.012;7.862;2022-10-16T06:08:49;18.50;99.90
12303;DHT22;6214;48.012;7.862;2022-10-16T06:11:21;18.60;99.90
12303;DHT22;6214;48.012;7.862;2022-10-16T06:13:56;18.60;99.90
12303;DHT22;6214;48.012;7.862;2022-10-16T06:16:25;18.60;99.90
12303;DHT22;6214;48.012;7.862;2022-10-16T06:18:53;18.70;99.90
12303;DHT22;6214;48.012;7.862;2022-10-16T06:21:22;18.70;99.90
12303;DHT22;6214;48.012;7.862;2022-10-16T06:23:51;18.80;99.90
12303;DHT22;6214;48.012;7.862;2022-10-16T06:26:21;18.80;99.90
12303;DHT22;6214;48.012;7.862;2022-10-16T06:28:49;18.80;99.90
12303;DHT22;6214;48.012;7.862;2022-10-16T06:31:17;18.80;99.90
12303;DHT22;6214;48.012;7.862;2022-10-16T06:33:44;18.90;99.90
12303;DHT22;6214;48.012;7.862;2022-10-16T06:36:15;18.90;99.90
12303;DHT22;6214;48.012;7.862;2022-10-16T06:38:43;19.00;99.90
12303;DHT22;6214;48.012;7.862;2022-10-16T06:41:13;19.10;99.90
12303;DHT22;6214;48.012;7.862;2022-10-16T06:43:41;19.10;99.90
12303;DHT22;6214;48.012;7.862;2022-10-16T06:46:10;19.10;99.90
12303;DHT22;6214;48.012;7.862;2022-10-16T06:48:37;19.20;99.90
12303;DHT22;6214;48.012;7.862;2022-10-16T06:51:15;19.20;99.90
12303;DHT22;6214;48.012;7.862;2022-10-16T06:53:48;19.20;99.90
12303;DHT22;6214;48.012;7.862;2022-10-16T06:56:32;19.20;99.90
12303;DHT22;6214;48.012;7.862;2022-10-16T06:58:59;19.10;99.90
12303;DHT22;6214;48.012;7.862;2022-10-16T07:01:27;19.00;99.90
12303;DHT22;6214;48.012;7.862;2022-10-16T07:03:54;18.90;99.90
12303;DHT22;6214;48.012;7.862;2022-10-16T07:06:23;18.90;99.90
12303;DHT22;6214;48.012;7.862;2022-10-16T07:08:51;18.90;99.90
12303;DHT22;6214;48.012;7.862;2022-10-16T07:11:20;18.90;99.90
12303;DHT22;6214;48.012;7.862;2022-10-16T07:13:48;19.00;99.90
12303;DHT22;6214;48.012;7.862;2022-10-16T07:16:29;18.90;99.90
12303;DHT22;6214;48.012;7.862;2022-10-16T07:18:59;19.00;99.90
12303;DHT22;6214;48.012;7.862;2022-10-16T07:21:31;19.10;99.90
12303;DHT22;6214;48.012;7.862;2022-10-16T07:24:03;19.10;99.90
12303;DHT22;6214;48.012;7.862;2022-10-16T07:26:32;19.10;99.90
12303;DHT22;6214;48.012;7.862;2022-10-16T07:28:59;19.00;99.90
12303;DHT22;6214;48.012;7.862;2022-10-16T07:31:27;19.10;99.90
12303;DHT22;6214;48.012;7.862;2022-10-16T07:33:54;19.00;99.90
12303;DHT22;6214;48.012;7.862;2022-10-16T07:36:22;18.80;99.90
12303;DHT22;6214;48.012;7.862;2022-10-16T07:38:49;18.80;99.90
12303;DHT22;6214;48.012;7.862;2022-10-16T07:41:21;19.00;99.90
12303;DHT22;6214;48.012;7.862;2022-10-16T07:43:50;19.10;99.90
12303;DHT22;6214;48.012;7.862;2022-10-16T07:46:18;19.20;99.90
12303;DHT22;6214;48.012;7.862;2022-10-16T07:48:46;19.30;99.90
12303;DHT22;6214;48.012;7.862;2022-10-16T07:51:17;19.40;99.90
12303;DHT22;6214;48.012;7.862;2022-10-16T07:53:44;19.50;99.90
12303;DHT22;6214;48.012;7.862;2022-10-16T07:56:12;19.60;99.90
12303;DHT22;6214;48.012;7.862;2022-10-16T07:58:39;19.60;99.90
12303;DHT22;6214;48.012;7.862;2022-10-16T08:01:08;19.80;99.90
12303;DHT22;6214;48.012;7.862;2022-10-16T08:03:36;19.80;99.90
12303;DHT22;6214;48.012;7.862;2022-10-16T08:06:03;19.90;99.90
12303;DHT22;6214;48.012;7.862;2022-10-16T08:08:31;20.10;99.90
12303;DHT22;6214;48.012;7.862;2022-10-16T08:10:58;20.20;99.90
12303;DHT22;6214;48.012;7.862;2022-10-16T08:13:25;20.40;99.90
12303;DHT22;6214;48.012;7.862;2022-10-16T08:15:53;20.60;99.90
12303;DHT22;6214;48.012;7.862;2022-10-16T08:18:21;20.80;99.90
12303;DHT22;6214;48.012;7.862;2022-10-16T08:20:58;20.90;99.90
12303;DHT22;6214;48.012;7.862;2022-10-16T08:23:27;21.20;99.90
12303;DHT22;6214;48.012;7.862;2022-10-16T08:25:55;21.30;99.90
12303;DHT22;6214;48.012;7.862;2022-10-16T08:28:23;21.40;99.90
12303;DHT22;6214;48.012;7.862;2022-10-16T08:30:50;21.40;99.90
12303;DHT22;6214;48.012;7.862;2022-10-16T08:33:17;21.40;99.90
12303;DHT22;6214;48.012;7.862;2022-10-16T08:35:51;21.50;99.90
12303;DHT22;6214;48.012;7.862;2022-10-16T08:38:18;21.50;99.90
12303;DHT22;6214;48.012;7.862;2022-10-16T08:40:45;21.50;99.90
12303;DHT22;6214;48.012;7.862;2022-10-16T08:48:57;21.60;99.90
12303;DHT22;6214;48.012;7.862;2022-10-16T08:51:34;21.60;99.90
12303;DHT22;6214;48.012;7.862;2022-10-16T08:54:21;21.50;99.90
12303;DHT22;6214;48.012;7.862;2022-10-16T08:56:49;21.50;99.90
12303;DHT22;6214;48.012;7.862;2022-10-16T08:59:17;21.50;99.90
12303;DHT22;6214;48.012;7.862;2022-10-16T09:01:46;21.60;99.90
12303;DHT22;6214;48.012;7.862;2022-10-16T09:07:39;21.60;99.90
12303;DHT22;6214;48.012;7.862;2022-10-16T09:13:17;21.80;99.90
12303;DHT22;6214;48.012;7.862;2022-10-16T09:16:05;21.90;99.90
12303;DHT22;6214;48.012;7.862;2022-10-16T09:18:54;22.00;99.90
12303;DHT22;6214;48.012;7.862;2022-10-16T09:21:36;22.20;99.90
12303;DHT22;6214;48.012;7.862;2022-10-16T09:24:25;22.30;99.90
12303;DHT22;6214;48.012;7.862;2022-10-16T09:26:55;22.40;99.90
12303;DHT22;6214;48.012;7.862;2022-10-16T09:29:22;22.50;99.90
12303;DHT22;6214;48.012;7.862;2022-10-16T09:31:53;22.60;99.90
12303;DHT22;6214;48.012;7.862;2022-10-16T09:34:30;22.90;99.90
12303;DHT22;6214;48.012;7.862;2022-10-16T09:37:01;22.90;99.90
12303;DHT22;6214;48.012;7.862;2022-10-16T09:39:29;23.20;99.90
12303;DHT22;6214;48.012;7.862;2022-10-16T09:41:56;23.60;99.90
12303;DHT22;6214;48.012;7.862;2022-10-16T09:44:30;23.80;99.90
12303;DHT22;6214;48.012;7.862;2022-10-16T09:47:13;24.00;99.90
12303;DHT22;6214;48.012;7.862;2022-10-16T09:49:51;24.30;99.90
12303;DHT22;6214;48.012;7.862;2022-10-16T09:52:19;24.60;99.90
12303;DHT22;6214;48.012;7.862;2022-10-16T09:55:13;24.80;99.90
12303;DHT22;6214;48.012;7.862;2022-10-16T10:00:18;25.20;99.90
12303;DHT22;6214;48.012;7.862;2022-10-16T10:02:46;25.30;99.90
12303;DHT22;6214;48.012;7.862;2022-10-16T10:05:25;25.30;99.90
12303;DHT22;6214;48.012;7.862;2022-10-16T10:07:58;25.30;99.90
12303;DHT22;6214;48.012;7.862;2022-10-16T10:10:30;25.30;99.90
12303;DHT22;6214;48.012;7.862;2022-10-16T10:12:59;25.40;99.90
12303;DHT22;6214;48.012;7.862;2022-10-16T10:15:29;25.50;99.90
12303;DHT22;6214;48.012;7.862;2022-10-16T10:18:00;25.60;99.90
12303;DHT22;6214;48.012;7.862;2022-10-16T10:20:30;25.60;99.90
12303;DHT22;6214;48.012;7.862;2022-10-16T10:23:21;25.50;99.90
12303;DHT22;6214;48.012;7.862;2022-10-16T10:25:53;25.50;99.90
12303;DHT22;6214;48.012;7.862;2022-10-16T10:37:17;25.60;99.90
12303;DHT22;6214;48.012;7.862;2022-10-16T10:39:55;25.70;99.90
12303;DHT22;6214;48.012;7.862;2022-10-16T10:43:12;25.60;99.90
12303;DHT22;6214;48.012;7.862;2022-10-16T10:45:42;25.60;99.90
12303;DHT22;6214;48.012;7.862;2022-10-16T10:51:13;25.60;99.90
12303;DHT22;6214;48.012;7.862;2022-10-16T10:54:03;25.60;99.90
12303;DHT22;6214;48.012;7.862;2022-10-16T10:56:57;25.60;99.90
12303;DHT22;6214;48.012;7.862;2022-10-16T10:59:54;25.60;99.90
12303;DHT22;6214;48.012;7.862;2022-10-16T11:02:41;25.50;99.90
12303;DHT22;6214;48.012;7.862;2022-10-16T11:10:23;25.40;99.90
12303;DHT22;6214;48.012;7.862;2022-10-16T11:12:58;25.50;99.90
12303;DHT22;6214;48.012;7.862;2022-10-16T11:15:35;25.40;99.90
12303;DHT22;6214;48.012;7.862;2022-10-16T11:18:11;25.60;99.90
12303;DHT22;6214;48.012;7.862;2022-10-16T11:20:50;25.50;99.90
12303;DHT22;6214;48.012;7.862;2022-10-16T11:23:43;25.60;99.90
12303;DHT22;6214;48.012;7.862;2022-10-16T11:26:19;25.60;99.90
12303;DHT22;6214;48.012;7.862;2022-10-16T11:28:52;25.60;99.90
12303;DHT22;6214;48.012;7.862;2022-10-16T11:31:43;25.80;99.90
12303;DHT22;6214;48.012;7.862;2022-10-16T11:34:22;25.80;99.90
12303;DHT22;6214;48.012;7.862;2022-10-16T11:37:05;25.90;99.90
12303;DHT22;6214;48.012;7.862;2022-10-16T11:39:35;25.90;99.90
12303;DHT22;6214;48.012;7.862;2022-10-16T11:42:11;25.90;99.90
12303;DHT22;6214;48.012;7.862;2022-10-16T11:44:54;25.90;99.90
12303;DHT22;6214;48.012;7.862;2022-10-16T11:55:22;25.90;99.90
12303;DHT22;6214;48.012;7.862;2022-10-16T11:57:54;25.90;99.90
12303;DHT22;6214;48.012;7.862;2022-10-16T12:00:31;25.80;99.90
12303;DHT22;6214;48.012;7.862;2022-10-16T12:03:22;25.70;99.90
12303;DHT22;6214;48.012;7.862;2022-10-16T12:08:43;25.50;99.90
12303;DHT22;6214;48.012;7.862;2022-10-16T12:16:59;25.40;99.90
12303;DHT22;6214;48.012;7.862;2022-10-16T12:19:28;25.40;99.90
12303;DHT22;6214;48.012;7.862;2022-10-16T12:21:58;25.40;99.90
12303;DHT22;6214;48.012;7.862;2022-10-16T12:24:38;25.50;99.90
12303;DHT22;6214;48.012;7.862;2022-10-16T12:27:25;25.50;99.90
12303;DHT22;6214;48.012;7.862;2022-10-16T12:29:57;25.60;99.90
12303;DHT22;6214;48.012;7.862;2022-10-16T12:35:27;25.80;99.90
12303;DHT22;6214;48.012;7.862;2022-10-16T12:38:03;25.80;99.90
12303;DHT22;6214;48.012;7.862;2022-10-16T12:40:32;25.80;99.90
12303;DHT22;6214;48.012;7.862;2022-10-16T12:46:05;25.80;99.90
12303;DHT22;6214;48.012;7.862;2022-10-16T12:48:33;25.70;99.90
12303;DHT22;6214;48.012;7.862;2022-10-16T12:54:13;25.60;99.90
12303;DHT22;6214;48.012;7.862;2022-10-16T13:10:40;25.00;99.90
12303;DHT22;6214;48.012;7.862;2022-10-16T13:27:07;24.80;99.90
12303;DHT22;6214;48.012;7.862;2022-10-16T13:29:38;24.80;99.90
12303;DHT22;6214;48.012;7.862;2022-10-16T13:32:10;24.80;99.90
12303;DHT22;6214;48.012;7.862;2022-10-16T13:34:46;24.80;99.90
12303;DHT22;6214;48.012;7.862;2022-10-16T13:37:20;24.90;99.90
12303;DHT22;6214;48.012;7.862;2022-10-16T13:39:48;25.00;99.90
12303;DHT22;6214;48.012;7.862;2022-10-16T13:44:50;25.10;99.90
12303;DHT22;6214;48.012;7.862;2022-10-16T13:49:46;25.10;99.90
12303;DHT22;6214;48.012;7.862;2022-10-16T13:52:20;25.10;99.90
12303;DHT22;6214;48.012;7.862;2022-10-16T13:54:48;25.10;99.90
12303;DHT22;6214;48.012;7.862;2022-10-16T13:57:16;25.10;99.90
12303;DHT22;6214;48.012;7.862;2022-10-16T13:59:53;25.00;99.90
12303;DHT22;6214;48.012;7.862;2022-10-16T14:02:36;25.00;99.90
12303;DHT22;6214;48.012;7.862;2022-10-16T14:05:04;25.10;99.90
12303;DHT22;6214;48.012;7.862;2022-10-16T14:07:36;25.10;99.90
12303;DHT22;6214;48.012;7.862;2022-10-16T14:10:06;25.20;99.90
12303;DHT22;6214;48.012;7.862;2022-10-16T14:12:34;25.20;99.90
12303;DHT22;6214;48.012;7.862;2022-10-16T14:15:01;25.10;99.90
12303;DHT22;6214;48.012;7.862;2022-10-16T14:17:31;25.10;99.90
12303;DHT22;6214;48.012;7.862;2022-10-16T14:20:00;25.10;99.90
12303;DHT22;6214;48.012;7.862;2022-10-16T14:25:20;25.20;99.90
12303;DHT22;6214;48.012;7.862;2022-10-16T14:30:58;25.00;99.90
12303;DHT22;6214;48.012;7.862;2022-10-16T14:36:06;25.00;99.90
12303;DHT22;6214;48.012;7.862;2022-10-16T14:38:43;25.10;99.90
12303;DHT22;6214;48.012;7.862;2022-10-16T14:41:15;25.10;99.90
12303;DHT22;6214;48.012;7.862;2022-10-16T14:43:43;25.20;99.90
12303;DHT22;6214;48.012;7.862;2022-10-16T14:46:20;25.10;99.90
12303;DHT22;6214;48.012;7.862;2022-10-16T14:48:50;25.10;99.90
12303;DHT22;6214;48.012;7.862;2022-10-16T14:51:19;25.10;99.90
12303;DHT22;6214;48.012;7.862;2022-10-16T14:53:47;25.10;99.90
12303;DHT22;6214;48.012;7.862;2022-10-16T14:56:20;25.20;99.90
12303;DHT22;6214;48.012;7.862;2022-10-16T14:58:49;25.20;99.90
12303;DHT22;6214;48.012;7.862;2022-10-16T15:01:17;25.20;99.90
12303;DHT22;6214;48.012;7.862;2022-10-16T15:03:45;25.10;99.90
12303;DHT22;6214;48.012;7.862;2022-10-16T15:06:14;25.20;99.90
12303;DHT22;6214;48.012;7.862;2022-10-16T15:08:41;25.10;99.90
12303;DHT22;6214;48.012;7.862;2022-10-16T15:11:17;25.20;99.90
12303;DHT22;6214;48.012;7.862;2022-10-16T15:13:45;25.20;99.90
12303;DHT22;6214;48.012;7.862;2022-10-16T15:16:14;25.30;99.90
12303;DHT22;6214;48.012;7.862;2022-10-16T15:18:42;25.20;99.90
12303;DHT22;6214;48.012;7.862;2022-10-16T15:21:31;25.20;99.90
12303;DHT22;6214;48.012;7.862;2022-10-16T15:23:59;25.10;99.90
12303;DHT22;6214;48.012;7.862;2022-10-16T15:26:27;25.10;99.90
12303;DHT22;6214;48.012;7.862;2022-10-16T15:28:55;25.10;99.90
12303;DHT22;6214;48.012;7.862;2022-10-16T15:31:23;25.00;99.90
12303;DHT22;6214;48.012;7.862;2022-10-16T15:33:52;25.00;99.90
12303;DHT22;6214;48.012;7.862;2022-10-16T15:36:34;25.00;99.90
12303;DHT22;6214;48.012;7.862;2022-10-16T15:39:04;24.90;99.90
12303;DHT22;6214;48.012;7.862;2022-10-16T15:41:32;24.90;99.90
12303;DHT22;6214;48.012;7.862;2022-10-16T15:43:59;24.90;99.90
12303;DHT22;6214;48.012;7.862;2022-10-16T15:46:26;24.80;99.90
12303;DHT22;6214;48.012;7.862;2022-10-16T15:48:57;24.70;99.90
12303;DHT22;6214;48.012;7.862;2022-10-16T15:51:25;24.60;99.90
12303;DHT22;6214;48.012;7.862;2022-10-16T15:53:56;24.60;99.90
12303;DHT22;6214;48.012;7.862;2022-10-16T15:56:23;24.50;99.90
12303;DHT22;6214;48.012;7.862;2022-10-16T15:58:52;24.30;99.90
12303;DHT22;6214;48.012;7.862;2022-10-16T16:01:20;24.00;99.90
12303;DHT22;6214;48.012;7.862;2022-10-16T16:03:52;24.00;99.90
12303;DHT22;6214;48.012;7.862;2022-10-16T16:06:21;23.90;99.90
12303;DHT22;6214;48.012;7.862;2022-10-16T16:08:48;23.80;99.90
12303;DHT22;6214;48.012;7.862;2022-10-16T16:11:16;23.70;99.90
12303;DHT22;6214;48.012;7.862;2022-10-16T16:13:44;23.50;99.90
12303;DHT22;6214;48.012;7.862;2022-10-16T16:16:13;23.40;99.90
12303;DHT22;6214;48.012;7.862;2022-10-16T16:18:42;23.20;99.90
12303;DHT22;6214;48.012;7.862;2022-10-16T16:21:10;23.20;99.90
12303;DHT22;6214;48.012;7.862;2022-10-16T16:23:38;23.10;99.90
12303;DHT22;6214;48.012;7.862;2022-10-16T16:26:08;23.00;99.90
12303;DHT22;6214;48.012;7.862;2022-10-16T16:28:37;22.80;99.90
12303;DHT22;6214;48.012;7.862;2022-10-16T16:31:04;22.70;99.90
12303;DHT22;6214;48.012;7.862;2022-10-16T16:33:31;22.70;99.90
12303;DHT22;6214;48.012;7.862;2022-10-16T16:36:01;22.40;99.90
12303;DHT22;6214;48.012;7.862;2022-10-16T16:38:29;22.30;99.90
12303;DHT22;6214;48.012;7.862;2022-10-16T16:40:56;22.20;99.90
12303;DHT22;6214;48.012;7.862;2022-10-16T16:43:24;22.20;99.90
12303;DHT22;6214;48.012;7.862;2022-10-16T16:45:52;22.10;99.90
12303;DHT22;6214;48.012;7.862;2022-10-16T16:48:19;22.00;99.90
12303;DHT22;6214;48.012;7.862;2022-10-16T16:50:46;21.80;99.90
12303;DHT22;6214;48.012;7.862;2022-10-16T16:53:13;21.70;99.90
12303;DHT22;6214;48.012;7.862;2022-10-16T16:55:40;21.50;99.90
12303;DHT22;6214;48.012;7.862;2022-10-16T16:58:07;21.50;99.90
12303;DHT22;6214;48.012;7.862;2022-10-16T17:00:34;21.30;99.90
12303;DHT22;6214;48.012;7.862;2022-10-16T17:03:01;21.30;99.90
12303;DHT22;6214;48.012;7.862;2022-10-16T17:05:28;21.20;99.90
12303;DHT22;6214;48.012;7.862;2022-10-16T17:07:55;21.10;99.90
12303;DHT22;6214;48.012;7.862;2022-10-16T17:10:22;21.00;99.90
12303;DHT22;6214;48.012;7.862;2022-10-16T17:12:49;21.00;99.90
12303;DHT22;6214;48.012;7.862;2022-10-16T17:15:17;20.90;99.90
12303;DHT22;6214;48.012;7.862;2022-10-16T17:17:44;20.80;99.90
12303;DHT22;6214;48.012;7.862;2022-10-16T17:20:12;20.80;99.90
12303;DHT22;6214;48.012;7.862;2022-10-16T17:22:40;20.80;99.90
12303;DHT22;6214;48.012;7.862;2022-10-16T17:25:07;20.80;99.90
12303;DHT22;6214;48.012;7.862;2022-10-16T17:27:34;20.90;99.90
12303;DHT22;6214;48.012;7.862;2022-10-16T17:30:05;21.00;99.90
12303;DHT22;6214;48.012;7.862;2022-10-16T17:32:32;21.10;99.90
12303;DHT22;6214;48.012;7.862;2022-10-16T17:35:01;21.20;99.90
12303;DHT22;6214;48.012;7.862;2022-10-16T17:37:28;21.30;99.90
12303;DHT22;6214;48.012;7.862;2022-10-16T17:39:55;21.30;99.90
12303;DHT22;6214;48.012;7.862;2022-10-16T17:42:22;21.30;99.90
12303;DHT22;6214;48.012;7.862;2022-10-16T17:44:50;21.40;99.90
12303;DHT22;6214;48.012;7.862;2022-10-16T17:47:17;21.30;99.90
12303;DHT22;6214;48.012;7.862;2022-10-16T17:49:44;21.10;99.90
12303;DHT22;6214;48.012;7.862;2022-10-16T17:52:11;21.10;99.90
12303;DHT22;6214;48.012;7.862;2022-10-16T17:54:38;21.00;99.90
12303;DHT22;6214;48.012;7.862;2022-10-16T17:57:05;21.00;99.90